createdAt,value
2022-10-30T00:01:29.609Z,1.07
2022-10-30T00:03:38.460Z,0.90
2022-10-30T00:05:49.348Z,2.20
2022-10-30T00:07:59.044Z,1.90
2022-10-30T00:10:08.908Z,1.70
2022-10-30T00:12:19.304Z,0.80
2022-10-30T00:14:28.115Z,1.07
2022-10-30T00:16:37.205Z,1.27
2022-10-30T00:18:46.492Z,0.70
2022-10-30T00:20:55.372Z,1.60
2022-10-30T00:23:04.210Z,0.83
2022-10-30T00:25:12.810Z,3.13
2022-10-30T00:27:23.181Z,1.43
2022-10-30T00:29:31.902Z,1.47
2022-10-30T00:31:40.939Z,1.00
2022-10-30T00:33:51.591Z,2.30
2022-10-30T00:36:00.656Z,1.00
2022-10-30T00:38:09.576Z,3.27
2022-10-30T00:40:18.642Z,0.80
2022-10-30T00:42:31.637Z,1.00
2022-10-30T00:44:43.839Z,0.97
2022-10-30T00:46:52.622Z,2.57
2022-10-30T00:49:04.469Z,1.77
2022-10-30T00:51:14.318Z,2.87
2022-10-30T00:53:24.231Z,1.53
2022-10-30T00:55:34.647Z,2.90
2022-10-30T00:57:45.651Z,0.93
2022-10-30T00:59:54.571Z,2.10
2022-10-30T01:02:04.491Z,1.43
2022-10-30T01:04:14.152Z,3.50
2022-10-30T01:06:23.367Z,2.10
2022-10-30T01:08:32.328Z,1.27
2022-10-30T01:10:41.723Z,1.20
2022-10-30T01:12:52.850Z,1.07
2022-10-30T01:15:02.630Z,1.63
2022-10-30T01:17:18.823Z,2.33
2022-10-30T01:19:33.345Z,2.20
2022-10-30T01:21:48.211Z,1.13
2022-10-30T01:24:03.982Z,3.60
2022-10-30T01:26:17.195Z,1.60
2022-10-30T01:28:38.151Z,1.93
2022-10-30T01:30:54.862Z,0.70
2022-10-30T01:33:10.604Z,6.30
2022-10-30T01:35:22.946Z,0.87
2022-10-30T01:37:35.538Z,0.93
2022-10-30T01:39:44.183Z,2.67
2022-10-30T01:41:53.553Z,0.90
2022-10-30T01:44:06.127Z,0.90
2022-10-30T01:46:25.344Z,1.23
2022-10-30T01:48:52.231Z,1.80
2022-10-30T01:51:06.560Z,1.67
2022-10-30T01:53:19.566Z,2.77
2022-10-30T01:55:34.718Z,1.80
2022-10-30T01:57:45.327Z,1.10
2022-10-30T01:59:57.253Z,1.60
2022-10-30T14:07:35.055Z,1.30
2022-10-30T14:09:47.690Z,1.27
2022-10-30T14:11:56.335Z,2.60
2022-10-30T14:14:25.901Z,1.00
2022-10-30T14:16:36.392Z,1.43
2022-10-30T14:18:45.878Z,0.90
2022-10-30T14:20:54.596Z,0.90
2022-10-30T14:23:10.964Z,1.07
2022-10-30T14:25:19.442Z,2.10
2022-10-30T14:27:29.290Z,1.77
2022-10-30T14:29:48.610Z,0.80
2022-10-30T14:31:57.345Z,2.73
2022-10-30T14:34:05.942Z,2.50
2022-10-30T14:36:14.952Z,0.93
2022-10-30T14:38:28.925Z,2.33
2022-10-30T14:40:39.998Z,1.43
2022-10-30T14:42:53.245Z,2.67
2022-10-30T14:45:08.610Z,2.07
2022-10-30T14:47:31.659Z,4.23
2022-10-30T14:49:46.184Z,1.70
2022-10-30T14:52:00.629Z,2.20
2022-10-30T14:54:18.290Z,2.30
2022-10-30T14:56:31.791Z,1.70
2022-10-30T14:58:40.550Z,2.43
2022-10-30T15:00:49.171Z,2.20
2022-10-30T15:02:59.777Z,6.83
2022-10-30T15:05:31.343Z,12.83
2022-10-30T15:07:41.675Z,12.83
2022-10-30T15:09:58.833Z,8.30
2022-10-30T15:12:16.895Z,6.67
2022-10-30T15:14:40.663Z,8.03
2022-10-30T15:16:57.275Z,7.13
2022-10-30T15:19:07.877Z,7.67
2022-10-30T15:21:22.994Z,6.97
2022-10-30T15:23:32.095Z,6.53
2022-10-30T15:25:47.601Z,7.50
2022-10-30T15:27:57.750Z,7.80
2022-10-30T15:30:07.069Z,7.37
2022-10-30T15:32:17.461Z,23.97
2022-10-30T15:34:26.752Z,11.87
2022-10-30T15:36:37.355Z,7.33
2022-10-30T15:38:45.856Z,9.47
2022-10-30T15:41:00.225Z,6.07
2022-10-30T15:43:12.570Z,11.77
2022-10-30T15:45:22.078Z,8.90
2022-10-30T15:47:31.026Z,11.23
2022-10-30T15:49:40.656Z,12.57
2022-10-30T15:51:49.313Z,13.03
2022-10-30T15:53:58.954Z,15.67
2022-10-30T15:56:13.607Z,15.80
2022-10-30T15:58:26.853Z,20.97
2022-10-30T16:00:36.378Z,17.20
2022-10-30T16:02:49.523Z,16.40
2022-10-30T16:04:58.042Z,16.40
2022-10-30T16:07:18.644Z,12.93
2022-10-30T16:09:28.914Z,15.60
2022-10-30T16:11:39.305Z,19.23
2022-10-30T16:13:47.759Z,16.37
2022-10-30T16:15:56.466Z,21.63
2022-10-30T16:18:08.192Z,20.43
2022-10-30T16:20:17.202Z,23.27
2022-10-30T16:22:26.636Z,21.77
2022-10-30T16:24:36.000Z,24.03
2022-10-30T16:26:47.047Z,19.50
2022-10-30T16:28:55.531Z,25.43
2022-10-30T16:31:05.388Z,22.97
2022-10-30T16:33:14.229Z,22.07
2022-10-30T16:35:24.538Z,23.07
2022-10-30T16:37:35.251Z,24.23
2022-10-30T16:39:44.841Z,24.67
2022-10-30T16:41:57.911Z,29.87
2022-10-30T16:44:12.135Z,25.57
2022-10-30T16:46:35.422Z,25.80
2022-10-30T16:48:46.826Z,32.13
2022-10-30T16:51:00.469Z,42.77
2022-10-30T16:53:10.453Z,41.27
2022-10-30T16:55:21.779Z,38.67
2022-10-30T16:57:34.395Z,35.30
2022-10-30T16:59:46.806Z,34.63
2022-10-30T17:01:57.567Z,34.33
2022-10-30T17:04:06.509Z,34.30
2022-10-30T17:06:28.048Z,34.07
2022-10-30T17:08:43.168Z,36.07
2022-10-30T17:10:58.054Z,42.87
2022-10-30T17:13:25.004Z,42.13
2022-10-30T17:15:35.171Z,46.57
2022-10-30T17:17:44.004Z,38.50
2022-10-30T17:19:57.248Z,30.90
2022-10-30T17:22:10.110Z,30.60
2022-10-30T17:24:20.362Z,30.20
2022-10-30T17:26:29.604Z,34.77
2022-10-30T17:28:38.858Z,24.37
2022-10-30T17:30:49.268Z,28.07
2022-10-30T17:32:58.703Z,25.00
2022-10-30T17:35:15.013Z,29.63
2022-10-30T17:37:24.392Z,23.57
2022-10-30T17:39:32.911Z,26.60
2022-10-30T17:41:42.100Z,26.07
2022-10-30T17:43:51.534Z,27.37
2022-10-30T17:46:01.582Z,63.53
2022-10-30T17:48:13.462Z,30.27
2022-10-30T17:50:21.933Z,28.40
2022-10-30T17:52:30.998Z,34.23
2022-10-30T17:54:40.040Z,35.00
2022-10-30T17:56:49.049Z,39.70
2022-10-30T17:58:59.999Z,45.07
2022-10-30T18:01:09.999Z,46.83
2022-10-30T18:03:19.143Z,54.10
2022-10-30T18:05:31.781Z,35.37
2022-10-30T18:07:40.323Z,30.63
2022-10-30T18:09:48.847Z,25.80
2022-10-30T18:11:57.686Z,30.57
2022-10-30T18:14:06.547Z,35.13
2022-10-30T18:16:17.622Z,34.37
2022-10-30T18:18:26.340Z,31.90
2022-10-30T18:20:35.005Z,30.20
2022-10-30T18:22:43.565Z,31.90
2022-10-30T18:24:52.290Z,32.80
2022-10-30T18:27:00.772Z,37.57
2022-10-30T18:29:09.500Z,31.97
2022-10-30T18:31:20.265Z,37.03
2022-10-30T18:33:28.771Z,32.00
2022-10-30T18:35:38.095Z,35.07
2022-10-30T18:37:46.577Z,30.67
2022-10-30T18:39:55.175Z,31.10
2022-10-30T18:42:03.666Z,28.57
2022-10-30T18:44:14.771Z,28.37
2022-10-30T18:46:25.098Z,28.10
2022-10-30T18:48:33.820Z,36.27
2022-10-30T18:50:43.184Z,29.37
2022-10-30T18:52:51.972Z,32.30
2022-10-30T18:55:00.563Z,31.33
2022-10-30T18:57:09.106Z,29.00
2022-10-30T18:59:17.607Z,25.97
2022-10-30T19:01:27.853Z,23.33
2022-10-30T19:03:36.435Z,21.33
2022-10-30T19:05:46.013Z,20.43
2022-10-30T19:07:54.841Z,18.73
2022-10-30T19:10:04.789Z,22.07
2022-10-30T19:12:13.696Z,19.33
2022-10-30T19:14:22.711Z,21.60
2022-10-30T19:16:33.494Z,20.00
2022-10-30T19:18:41.967Z,21.43
2022-10-30T19:21:03.905Z,21.13
2022-10-30T19:23:18.681Z,20.33
2022-10-30T19:25:28.705Z,18.27
2022-10-30T19:27:40.155Z,19.57
2022-10-30T19:29:48.681Z,25.97
2022-10-30T19:32:01.666Z,23.40
2022-10-30T19:34:10.576Z,17.57
2022-10-30T19:36:29.666Z,22.83
2022-10-30T19:38:38.277Z,19.93
2022-10-30T19:40:47.034Z,21.40
2022-10-30T19:42:56.440Z,22.93
2022-10-30T19:45:05.612Z,24.97
2022-10-30T19:47:15.629Z,28.23
2022-10-30T19:49:24.491Z,39.10
2022-10-30T19:51:32.964Z,29.53
2022-10-30T19:53:41.963Z,29.73
2022-10-30T19:55:50.917Z,31.37
2022-10-30T19:58:00.504Z,24.87
2022-10-30T20:00:15.398Z,21.63
2022-10-30T20:02:25.399Z,22.90
2022-10-30T20:04:34.094Z,23.07
2022-10-30T20:06:42.901Z,26.33
2022-10-30T20:08:51.506Z,26.60
2022-10-30T20:11:04.160Z,24.93
2022-10-30T20:13:21.029Z,26.20
2022-10-30T20:15:29.762Z,32.60
2022-10-30T20:17:39.713Z,32.40
2022-10-30T20:19:48.228Z,31.20
2022-10-30T20:21:59.614Z,33.50
2022-10-30T20:24:09.283Z,30.70
2022-10-30T20:26:25.288Z,32.20
2022-10-30T20:28:34.977Z,27.47
2022-10-30T20:30:43.476Z,30.43
2022-10-30T20:32:53.453Z,27.30
2022-10-30T20:35:05.134Z,22.93
2022-10-30T20:37:15.911Z,23.60
2022-10-30T20:39:24.348Z,20.40
2022-10-30T20:41:33.198Z,25.33
2022-10-30T20:43:47.343Z,23.97
2022-10-30T20:46:01.903Z,32.50
2022-10-30T20:48:11.995Z,32.10
2022-10-30T20:50:23.013Z,26.93
2022-10-30T20:52:38.708Z,27.93
2022-10-30T20:54:47.301Z,20.13
2022-10-30T20:56:57.477Z,24.77
2022-10-30T20:59:06.095Z,25.10
2022-10-30T21:01:17.981Z,22.70
2022-10-30T21:03:29.529Z,28.90
2022-10-30T21:05:44.314Z,23.50
2022-10-30T21:07:54.074Z,23.57
2022-10-30T21:10:07.984Z,22.57
2022-10-30T21:12:24.001Z,21.47
2022-10-30T21:14:32.638Z,24.30
2022-10-30T21:16:42.831Z,24.50
2022-10-30T21:18:54.399Z,22.43
2022-10-30T21:21:06.223Z,25.73
2022-10-30T21:23:14.875Z,24.00
2022-10-30T21:25:23.478Z,23.87
2022-10-30T21:27:32.185Z,19.90
2022-10-30T21:29:40.987Z,20.77
2022-10-30T21:31:50.036Z,21.33
2022-10-30T21:34:01.677Z,21.53
2022-10-30T21:36:12.991Z,24.63
2022-10-30T21:38:21.988Z,19.67
2022-10-30T21:40:30.518Z,21.90
2022-10-30T21:42:39.354Z,23.57
2022-10-30T21:44:49.248Z,20.17
2022-10-30T21:46:57.718Z,23.33
2022-10-30T21:49:08.246Z,20.67
2022-10-30T21:51:17.792Z,20.00
2022-10-30T21:53:26.460Z,22.37
2022-10-30T21:55:37.721Z,21.20
2022-10-30T21:57:46.230Z,19.57
2022-10-30T21:59:56.077Z,18.77
2022-10-30T22:02:06.161Z,19.73
2022-10-30T22:04:16.618Z,16.90
2022-10-30T22:06:25.310Z,16.10
2022-10-30T22:08:34.083Z,16.67
2022-10-30T22:10:45.196Z,18.10
2022-10-30T22:12:59.071Z,16.23
2022-10-30T22:15:09.262Z,16.67
2022-10-30T22:17:18.152Z,14.37
2022-10-30T22:19:29.494Z,15.37
2022-10-30T22:21:39.646Z,16.77
2022-10-30T22:23:48.130Z,16.27
2022-10-30T22:25:57.214Z,15.50
2022-10-30T22:28:05.926Z,16.50
2022-10-30T22:30:14.997Z,17.67
2022-10-30T22:32:23.922Z,18.40
2022-10-30T22:34:33.834Z,15.53
2022-10-30T22:36:42.515Z,14.80
2022-10-30T22:38:55.227Z,16.50
2022-10-30T22:41:10.767Z,14.33
2022-10-30T22:43:19.322Z,13.93
2022-10-30T22:45:27.823Z,19.90
2022-10-30T22:47:36.364Z,17.10
2022-10-30T22:49:51.515Z,11.33
2022-10-30T22:52:00.029Z,15.70
2022-10-30T22:54:09.725Z,12.57
2022-10-30T22:56:21.948Z,14.87
2022-10-30T22:58:30.894Z,12.33
2022-10-30T23:00:39.441Z,11.50
2022-10-30T23:02:48.060Z,12.37
2022-10-30T23:05:00.774Z,14.53
2022-10-30T23:07:10.027Z,12.47
2022-10-30T23:09:21.322Z,13.87
2022-10-30T23:11:32.570Z,12.93
2022-10-30T23:13:41.692Z,13.33
2022-10-30T23:15:50.633Z,10.10
2022-10-30T23:17:59.507Z,11.70
2022-10-30T23:20:10.771Z,10.73
2022-10-30T23:22:19.461Z,13.43
2022-10-30T23:24:28.304Z,11.53
2022-10-30T23:26:37.344Z,13.67
2022-10-30T23:28:47.406Z,10.70
2022-10-30T23:30:55.883Z,11.00
2022-10-30T23:33:04.376Z,13.27
2022-10-30T23:35:14.323Z,12.33
2022-10-30T23:37:23.288Z,11.77
2022-10-30T23:39:34.786Z,12.40
2022-10-30T23:41:43.503Z,9.87
2022-10-30T23:43:56.354Z,11.83
2022-10-30T23:46:05.436Z,12.30
2022-10-30T23:48:14.082Z,12.67
2022-10-30T23:50:27.203Z,11.93
2022-10-30T23:52:35.886Z,12.77
2022-10-30T23:54:44.414Z,12.17
2022-10-30T23:56:52.961Z,12.37
2022-10-30T23:59:02.347Z,12.60
